Time;durP1;ratioP1;P1;durP2;ratioP2;P2;SDS_P1;SDS_P2;PMS_P1;PMS_P2;Temp;Humidity;BMP_temperature;BMP_pressure;BME280_temperature;BME280_humidity;BME280_pressure;Samples;Min_cycle;Max_cycle;Signal;HPM_P1;HPM_P2
2023/10/29 02:26:16;;;;;;;6.28;1.40;;;22.30;38.10;;;;;;6074837;29;20049;-71
2023/10/29 02:32:34;;;;;;;6.97;2.20;;;22.30;38.30;;;;;;6754745;23;20064;-69
2023/10/29 02:35:46;;;;;;;19.15;6.93;;;22.20;38.20;;;;;;6082977;29;20567;-70
2023/10/29 02:39:04;;;;;;;14.32;4.95;;;22.20;38.40;;;;;;6098704;29;20665;-71
2023/10/29 07:28:09;;;;;;;1.38;0.47;;;22.90;37.80;;;;;;5806611;23;20968;-70
2023/10/29 07:44:12;;;;;;;3.35;0.73;;;23.10;37.80;;;;;;6806833;23;20057;-70
2023/10/29 07:47:16;;;;;;;1.80;0.52;;;23.10;37.40;;;;;;6058100;29;20048;-69
2023/10/29 08:34:43;;;;;;;1.50;0.50;;;24.00;36.90;;;;;;4181331;23;20052;-70
2023/10/29 08:41:11;;;;;;;2.30;0.45;;;24.20;36.90;;;;;;6302162;23;20064;-69
2023/10/29 10:21:43;;;;;;;0.52;0.30;;;26.20;33.40;;;;;;1451529;23;20334;-70
2023/10/29 10:25:10;;;;;;;;;;;26.20;33.10;;;;;;6048708;29;20112;-70
2023/10/29 10:28:14;;;;;;;1.85;0.60;;;26.20;33.10;;;;;;6037600;29;19919;-72
2023/10/29 11:28:36;;;;;;;2.67;0.85;;;26.50;33.00;;;;;;2007926;23;20455;-71
2023/10/29 12:18:58;;;;;;;1.55;0.60;;;27.80;30.40;;;;;;5860339;23;20092;-69
2023/10/29 12:25:21;;;;;;;1.75;0.73;;;27.50;30.50;;;;;;4003410;27;20065;-69
2023/10/29 12:28:26;;;;;;;1.70;0.70;;;27.40;30.80;;;;;;6016150;29;20044;-70
2023/10/29 12:31:31;;;;;;;2.97;0.40;;;27.30;30.80;;;;;;6041412;29;20049;-68
2023/10/29 12:34:56;;;;;;;2.58;0.40;;;27.30;30.90;;;;;;6046557;29;20033;-69
2023/10/29 13:01:25;;;;;;;2.40;0.55;;;26.90;31.10;;;;;;6974297;23;20061;-70
2023/10/29 13:20:59;;;;;;;5.03;0.70;;;26.50;32.00;;;;;;6781941;23;20086;-70
2023/10/29 13:24:01;;;;;;;3.42;0.52;;;26.40;32.10;;;;;;6058038;29;20033;-70
2023/10/29 13:37:37;;;;;;;1.23;0.57;;;26.20;32.60;;;;;;6138501;23;20079;-69
2023/10/29 13:57:05;;;;;;;3.05;0.70;;;26.00;32.70;;;;;;6771789;23;20056;-70
2023/10/29 15:24:56;;;;;;;1.80;0.60;;;24.70;35.10;;;;;;5412578;23;20329;-70
2023/10/29 15:27:57;;;;;;;3.17;0.52;;;24.60;35.10;;;;;;6072241;29;20099;-71
2023/10/29 17:36:31;;;;;;;2.63;0.80;;;23.90;35.50;;;;;;5913671;27;20088;-69
2023/10/29 17:39:48;;;;;;;1.20;0.70;;;23.90;35.30;;;;;;6035400;29;20451;-70
2023/10/29 17:43:25;;;;;;;1.77;0.90;;;23.90;35.30;;;;;;6162837;23;20065;-69
2023/10/29 17:46:31;;;;;;;2.70;0.82;;;24.00;35.30;;;;;;6058173;29;20052;-69
2023/10/29 17:49:32;;;;;;;2.13;0.80;;;24.00;35.20;;;;;;6074745;29;20032;-70
2023/10/29 17:52:36;;;;;;;3.10;0.57;;;23.90;35.30;;;;;;6074898;29;20120;-71
2023/10/29 17:55:37;;;;;;;1.33;0.60;;;23.90;35.30;;;;;;6075157;29;20131;-69
2023/10/29 17:58:39;;;;;;;2.00;0.57;;;23.90;35.30;;;;;;6075223;29;20043;-70
2023/10/29 18:01:40;;;;;;;5.43;0.90;;;23.90;35.30;;;;;;6056532;29;20055;-71
2023/10/29 18:04:41;;;;;;;3.45;0.60;;;24.00;35.40;;;;;;6050566;29;20040;-69
2023/10/29 18:07:42;;;;;;;7.05;2.08;;;23.90;35.30;;;;;;6052237;29;20029;-71
2023/10/29 18:10:43;;;;;;;2.08;0.68;;;23.90;35.30;;;;;;6051496;29;20148;-72
2023/10/29 18:13:45;;;;;;;2.80;0.77;;;23.90;35.30;;;;;;6052538;29;20082;-71
2023/10/29 18:16:46;;;;;;;4.20;1.00;;;23.90;35.30;;;;;;6051921;29;20131;-70
2023/10/29 18:19:47;;;;;;;8.05;1.17;;;23.80;35.20;;;;;;6038868;29;20041;-73
2023/10/29 18:22:48;;;;;;;3.95;1.10;;;23.80;35.20;;;;;;6028962;29;20041;-70
2023/10/29 18:25:49;;;;;;;3.45;0.68;;;23.80;35.10;;;;;;6028887;29;20048;-70
2023/10/29 18:28:57;;;;;;;2.40;0.80;;;23.80;35.10;;;;;;6028182;29;20034;-72
2023/10/29 18:32:00;;;;;;;3.25;1.13;;;23.80;35.00;;;;;;6028185;29;20096;-71
2023/10/29 18:35:02;;;;;;;1.00;0.63;;;23.80;34.80;;;;;;6027649;29;20044;-71
2023/10/29 18:38:03;;;;;;;1.98;0.80;;;23.80;34.40;;;;;;6027191;29;20493;-70
2023/10/29 18:41:18;;;;;;;5.13;1.10;;;23.90;34.40;;;;;;6026983;29;20149;-70
2023/10/29 18:44:19;;;;;;;4.03;0.80;;;23.90;34.50;;;;;;6032628;29;20038;-70
2023/10/29 18:47:22;;;;;;;2.65;0.98;;;23.90;34.30;;;;;;6046045;29;20040;-70
2023/10/29 18:50:23;;;;;;;2.50;1.10;;;23.90;34.30;;;;;;6050667;29;20727;-69
2023/10/29 18:53:24;;;;;;;1.65;1.00;;;23.80;34.30;;;;;;6065040;29;20077;-73
2023/10/29 18:56:25;;;;;;;3.58;0.98;;;23.80;34.40;;;;;;6049076;29;20033;-71
2023/10/29 18:59:26;;;;;;;2.45;0.80;;;23.80;34.30;;;;;;6049132;29;20485;-73
2023/10/29 19:02:27;;;;;;;3.78;1.27;;;23.70;34.30;;;;;;6048862;29;20049;-72
2023/10/29 19:05:28;;;;;;;5.47;0.85;;;23.70;34.30;;;;;;6064097;29;20044;-72
2023/10/29 19:08:29;;;;;;;4.35;0.90;;;23.70;34.30;;;;;;6050187;29;20033;-73
2023/10/29 19:11:33;;;;;;;1.45;0.70;;;23.70;34.20;;;;;;6056059;29;20110;-72
2023/10/29 19:14:35;;;;;;;1.17;0.70;;;23.70;34.10;;;;;;6025057;29;20041;-74
2023/10/29 19:17:39;;;;;;;3.33;0.85;;;23.70;33.80;;;;;;6026930;29;20044;-71
2023/10/29 19:20:46;;;;;;;4.15;0.93;;;23.70;33.80;;;;;;6045447;29;20120;-72
2023/10/29 19:23:50;;;;;;;0.73;0.70;;;23.70;33.60;;;;;;6049135;29;20052;-71
2023/10/29 19:26:52;;;;;;;2.63;0.40;;;23.80;33.50;;;;;;6048961;29;20033;-71
2023/10/29 19:29:56;;;;;;;1.52;0.80;;;23.80;33.40;;;;;;6049098;29;20068;-73
2023/10/29 19:32:57;;;;;;;1.30;0.70;;;23.80;33.20;;;;;;6047852;29;20021;-72
2023/10/29 19:35:58;;;;;;;3.70;0.70;;;23.90;33.00;;;;;;6047602;29;20127;-73
2023/10/29 19:38:59;;;;;;;1.40;0.85;;;23.90;33.40;;;;;;6047213;29;20040;-72
2023/10/29 19:42:03;;;;;;;3.47;0.63;;;23.90;32.80;;;;;;6046806;29;20112;-73
2023/10/29 19:45:05;;;;;;;2.80;0.65;;;24.00;32.80;;;;;;6026324;29;20041;-72
2023/10/29 19:48:06;;;;;;;1.75;0.65;;;23.90;32.70;;;;;;6026845;29;20060;-74
2023/10/29 19:51:09;;;;;;;3.67;0.85;;;24.00;32.70;;;;;;6024997;29;20446;-72
2023/10/29 19:54:10;;;;;;;1.95;0.45;;;23.90;32.40;;;;;;6026355;29;20081;-71
2023/10/29 19:57:11;;;;;;;2.60;0.77;;;23.90;32.40;;;;;;6025959;29;20028;-71
2023/10/29 20:00:18;;;;;;;2.20;0.68;;;23.90;32.30;;;;;;6046978;29;20036;-71
2023/10/29 20:03:19;;;;;;;1.15;0.68;;;24.00;32.40;;;;;;6048570;29;20595;-72
2023/10/29 20:06:20;;;;;;;11.70;0.70;;;24.00;32.40;;;;;;6048300;29;20549;-71
2023/10/29 20:09:21;;;;;;;1.45;0.63;;;24.00;32.40;;;;;;6048767;29;20085;-73
2023/10/29 20:12:22;;;;;;;3.22;0.90;;;23.90;32.40;;;;;;6048996;29;20037;-71
2023/10/29 20:15:24;;;;;;;1.58;0.70;;;23.90;32.40;;;;;;6048938;29;20059;-73
2023/10/29 20:18:25;;;;;;;5.68;0.90;;;23.90;32.40;;;;;;6046006;29;20592;-72
2023/10/29 20:21:31;;;;;;;1.30;0.68;;;23.90;32.40;;;;;;6025541;29;20076;-73
2023/10/29 20:24:32;;;;;;;1.38;0.80;;;23.90;32.50;;;;;;6025267;29;20615;-72
2023/10/29 20:27:35;;;;;;;2.97;0.43;;;23.80;32.50;;;;;;6025544;29;20029;-73
2023/10/29 20:30:37;;;;;;;4.55;0.90;;;23.80;32.50;;;;;;6025268;29;20041;-72
2023/10/29 20:33:37;;;;;;;1.10;0.77;;;23.80;32.40;;;;;;6025588;29;20386;-71
2023/10/29 20:36:40;;;;;;;3.22;0.90;;;23.80;32.40;;;;;;6028215;29;20315;-71
2023/10/29 20:39:42;;;;;;;0.80;0.50;;;23.80;32.40;;;;;;6042823;29;20097;-72
2023/10/29 20:42:43;;;;;;;1.67;0.80;;;23.80;32.40;;;;;;6031721;29;20052;-73
2023/10/29 20:45:44;;;;;;;2.40;0.80;;;23.80;32.30;;;;;;6046727;29;20128;-73
2023/10/29 20:48:49;;;;;;;3.50;0.93;;;23.80;32.20;;;;;;6046303;29;20165;-73
2023/10/29 20:51:49;;;;;;;3.80;0.75;;;23.80;32.20;;;;;;6047773;29;20056;-72
2023/10/29 20:54:50;;;;;;;4.63;0.93;;;23.80;32.20;;;;;;6047792;29;20037;-73
2023/10/29 20:57:51;;;;;;;5.35;0.75;;;23.80;32.20;;;;;;6047866;29;20169;-71
2023/10/29 21:00:53;;;;;;;0.65;0.40;;;23.70;32.10;;;;;;6051271;29;20040;-70
2023/10/29 21:03:55;;;;;;;2.92;0.82;;;23.70;32.10;;;;;;6051289;29;20028;-73
2023/10/29 21:06:56;;;;;;;3.20;0.63;;;23.70;31.80;;;;;;6052652;29;20045;-71
2023/10/29 21:09:57;;;;;;;1.25;0.63;;;23.70;31.70;;;;;;6051136;29;20036;-72
2023/10/29 21:13:00;;;;;;;3.08;0.88;;;23.80;31.70;;;;;;6052810;29;20041;-72
2023/10/29 21:16:09;;;;;;;1.10;0.50;;;23.80;31.70;;;;;;6055112;29;20040;-70
2023/10/29 21:19:13;;;;;;;0.90;0.60;;;23.80;31.60;;;;;;6043868;29;20047;-73
2023/10/29 21:22:14;;;;;;;5.88;0.80;;;23.80;31.50;;;;;;6030072;29;20129;-71
2023/10/29 21:25:18;;;;;;;1.38;0.50;;;23.80;31.50;;;;;;6029638;29;20037;-72
2023/10/29 21:28:19;;;;;;;4.05;0.60;;;23.80;31.60;;;;;;6028397;29;20033;-71
2023/10/29 21:31:20;;;;;;;3.20;0.60;;;23.80;31.70;;;;;;6030913;29;20466;-71
2023/10/29 21:34:21;;;;;;;3.67;0.70;;;23.80;31.80;;;;;;6032071;29;20105;-72
2023/10/29 21:37:22;;;;;;;2.25;0.47;;;23.70;31.80;;;;;;6054086;29;20393;-72
2023/10/29 21:40:23;;;;;;;5.25;0.73;;;23.70;31.90;;;;;;6052668;29;20116;-73
2023/10/29 21:43:24;;;;;;;2.15;0.80;;;23.70;31.80;;;;;;6052703;29;20033;-72
2023/10/29 21:46:25;;;;;;;4.88;0.82;;;23.70;31.90;;;;;;6067043;29;20029;-72
2023/10/29 21:49:26;;;;;;;0.73;0.50;;;23.70;31.80;;;;;;6052261;29;20121;-71
2023/10/29 21:52:27;;;;;;;1.60;0.70;;;23.70;31.60;;;;;;6066328;29;20048;-71
2023/10/29 21:55:29;;;;;;;1.13;0.63;;;23.80;31.50;;;;;;6035307;29;20037;-71
2023/10/29 21:58:29;;;;;;;0.70;0.57;;;23.80;31.40;;;;;;6051921;29;20030;-72
2023/10/29 22:01:33;;;;;;;1.42;0.80;;;23.80;31.40;;;;;;6035305;29;20767;-72
2023/10/29 22:04:34;;;;;;;1.80;0.55;;;23.80;31.40;;;;;;6027394;29;20620;-71
2023/10/29 22:07:35;;;;;;;1.50;0.63;;;23.80;31.40;;;;;;6027742;29;20041;-72
2023/10/29 22:10:36;;;;;;;1.60;0.70;;;23.70;31.40;;;;;;6030142;29;20036;-70
2023/10/29 22:13:40;;;;;;;0.80;0.40;;;23.80;31.40;;;;;;6051903;29;20085;-71
2023/10/29 22:16:41;;;;;;;0.77;0.40;;;23.80;31.20;;;;;;6052786;29;20036;-72
2023/10/29 22:19:42;;;;;;;1.52;0.52;;;23.80;30.90;;;;;;6039734;29;20142;-73
2023/10/29 22:22:43;;;;;;;1.35;0.60;;;23.80;30.80;;;;;;6027624;29;20030;-73
2023/10/29 22:25:45;;;;;;;2.15;0.60;;;23.80;30.50;;;;;;6027968;29;20383;-72
2023/10/29 22:28:46;;;;;;;3.33;0.70;;;23.90;30.50;;;;;;6030029;29;20034;-72
2023/10/29 22:31:50;;;;;;;2.15;0.60;;;23.90;30.60;;;;;;6041547;29;20040;-73
2023/10/29 22:35:21;;;;;;;1.15;0.68;;;23.90;30.60;;;;;;6053365;29;20029;-71
2023/10/29 22:38:24;;;;;;;1.65;0.45;;;23.90;30.60;;;;;;6088482;29;20422;-72
2023/10/29 22:41:25;;;;;;;1.20;0.55;;;23.90;30.50;;;;;;6074608;29;20748;-73
2023/10/29 22:44:26;;;;;;;3.00;0.47;;;23.90;30.30;;;;;;6053370;29;20839;-73
2023/10/29 22:47:27;;;;;;;5.03;0.55;;;23.90;30.30;;;;;;6051090;29;20497;-70
2023/10/29 22:50:31;;;;;;;1.77;0.50;;;23.90;30.20;;;;;;6048521;29;20078;-71
2023/10/29 22:53:32;;;;;;;0.95;0.50;;;23.90;30.20;;;;;;6051432;29;20132;-71
2023/10/29 22:56:34;;;;;;;0.88;0.40;;;24.00;30.20;;;;;;6051171;29;20068;-72
2023/10/29 22:59:35;;;;;;;4.82;0.80;;;24.00;30.20;;;;;;6050636;29;20040;-72
2023/10/29 23:02:36;;;;;;;5.25;0.80;;;24.00;30.00;;;;;;6049856;29;20307;-70
2023/10/29 23:05:37;;;;;;;2.75;0.57;;;24.00;29.90;;;;;;6050945;29;20174;-72
2023/10/29 23:08:40;;;;;;;0.75;0.55;;;24.10;29.80;;;;;;6050774;29;20108;-71
2023/10/29 23:11:41;;;;;;;1.67;0.50;;;24.10;29.80;;;;;;6048919;29;20029;-72
2023/10/29 23:14:44;;;;;;;0.50;0.50;;;24.10;29.90;;;;;;6049200;29;20048;-71
2023/10/29 23:17:45;;;;;;;0.98;0.60;;;24.10;29.90;;;;;;6048988;29;20063;-71
2023/10/29 23:20:46;;;;;;;4.05;1.08;;;24.10;29.90;;;;;;6030308;29;20033;-72
2023/10/29 23:23:47;;;;;;;1.65;0.60;;;24.10;30.00;;;;;;6027205;29;20025;-71
2023/10/29 23:26:49;;;;;;;0.85;0.60;;;24.20;30.00;;;;;;6027380;29;20490;-73
2023/10/29 23:29:50;;;;;;;2.25;0.82;;;24.10;30.00;;;;;;6026037;29;20104;-70
2023/10/29 23:32:51;;;;;;;8.32;0.70;;;24.10;29.90;;;;;;6027424;29;20470;-71
2023/10/29 23:35:52;;;;;;;1.13;0.50;;;24.10;29.90;;;;;;6027253;29;20037;-72
2023/10/29 23:38:54;;;;;;;2.67;0.40;;;24.10;30.00;;;;;;6025819;29;20037;-72
2023/10/29 23:41:55;;;;;;;4.43;0.68;;;24.10;29.80;;;;;;6029740;29;20081;-73
2023/10/29 23:44:56;;;;;;;4.57;0.98;;;24.10;29.90;;;;;;6047969;29;20522;-70
2023/10/29 23:47:57;;;;;;;1.48;0.52;;;24.10;29.90;;;;;;6048258;29;20084;-71
2023/10/29 23:50:58;;;;;;;1.10;0.60;;;24.10;29.90;;;;;;6049670;29;20040;-71
2023/10/29 23:53:59;;;;;;;4.45;0.57;;;24.10;29.90;;;;;;6049887;29;20382;-71
2023/10/29 23:57:00;;;;;;;4.72;0.52;;;24.10;30.00;;;;;;6048033;29;20695;-71
